createdAt,value
2023-05-17T05:01:12.177Z,25.96
2023-05-17T05:02:11.923Z,25.95
2023-05-17T05:03:12.020Z,25.95
2023-05-17T05:04:12.157Z,25.95
2023-05-17T05:05:12.139Z,25.95
2023-05-17T05:06:12.072Z,25.96
2023-05-17T05:07:12.072Z,25.96
2023-05-17T05:08:12.099Z,25.95
2023-05-17T05:09:12.145Z,25.96
2023-05-17T05:10:12.165Z,25.98
2023-05-17T05:11:12.203Z,25.98
2023-05-17T05:12:12.259Z,25.98
2023-05-17T05:13:12.308Z,25.99
2023-05-17T05:14:12.347Z,26.00
2023-05-17T05:15:12.439Z,25.99
2023-05-17T05:16:12.470Z,25.99
2023-05-17T05:17:20.653Z,26.00
2023-05-17T05:18:21.785Z,26.02
2023-05-17T05:19:12.703Z,26.02
2023-05-17T05:20:12.484Z,25.99
2023-05-17T05:21:13.184Z,26.00
2023-05-17T05:22:24.021Z,26.00
2023-05-17T05:23:12.668Z,26.03
2023-05-17T05:24:12.790Z,26.05
2023-05-17T05:25:12.821Z,26.02
2023-05-17T05:26:12.783Z,26.03
2023-05-17T05:27:12.810Z,26.05
2023-05-17T05:28:12.834Z,26.06
2023-05-17T05:29:12.885Z,26.05
2023-05-17T05:30:12.962Z,26.05
2023-05-17T05:31:12.972Z,26.06
2023-05-17T05:32:12.960Z,26.05
2023-05-17T05:33:13.258Z,26.08
2023-05-17T05:34:13.930Z,26.06
2023-05-17T05:35:13.114Z,26.06
2023-05-17T05:36:13.806Z,26.05
2023-05-17T05:37:13.768Z,26.05
2023-05-17T05:38:13.458Z,26.06
2023-05-17T05:39:13.292Z,26.06
2023-05-17T05:40:14.424Z,26.02
2023-05-17T05:41:14.870Z,26.05
2023-05-17T05:42:13.419Z,26.05
2023-05-17T05:43:13.417Z,26.03
2023-05-17T05:44:13.449Z,26.05
2023-05-17T05:45:13.524Z,26.02
2023-05-17T05:46:13.556Z,26.03
2023-05-17T05:47:13.610Z,26.05
2023-05-17T05:48:13.685Z,26.05
2023-05-17T05:49:13.775Z,26.00
2023-05-17T05:50:13.715Z,26.02
2023-05-17T05:51:13.685Z,26.03
2023-05-17T05:52:13.763Z,26.06
2023-05-17T05:53:19.300Z,26.08
2023-05-17T05:54:14.755Z,26.08
2023-05-17T05:55:13.778Z,26.10
2023-05-17T05:56:13.810Z,26.09
2023-05-17T05:57:13.793Z,26.10
2023-05-17T05:58:13.859Z,26.13
2023-05-17T05:59:13.716Z,26.12
2023-05-17T06:00:13.745Z,26.15
2023-05-17T06:01:13.725Z,26.16
2023-05-17T06:02:13.708Z,26.20
2023-05-17T06:03:13.697Z,26.23
2023-05-17T06:04:13.712Z,26.25
2023-05-17T06:05:13.845Z,26.25
2023-05-17T06:06:13.808Z,26.26
2023-05-17T06:07:13.712Z,26.28
2023-05-17T06:08:13.762Z,26.30
2023-05-17T06:09:13.838Z,26.28
2023-05-17T06:10:13.810Z,26.28
2023-05-17T06:11:13.819Z,26.25
2023-05-17T06:12:13.851Z,26.28
2023-05-17T06:13:13.923Z,26.26
2023-05-17T06:14:13.941Z,26.26
2023-05-17T06:15:14.764Z,26.23
2023-05-17T06:16:13.978Z,26.23
2023-05-17T06:17:14.001Z,26.25
2023-05-17T06:18:13.989Z,26.26
2023-05-17T06:19:14.023Z,26.25
2023-05-17T06:20:14.316Z,26.25
2023-05-17T06:21:14.019Z,26.20
2023-05-17T06:22:13.919Z,26.22
2023-05-17T06:23:13.889Z,26.22
2023-05-17T06:24:13.906Z,26.22
2023-05-17T06:25:13.901Z,26.22
2023-05-17T06:26:13.936Z,26.20
2023-05-17T06:27:13.871Z,26.20
2023-05-17T06:28:14.009Z,26.22
2023-05-17T06:29:13.827Z,26.22
2023-05-17T06:30:13.815Z,26.20
2023-05-17T06:31:13.875Z,26.22
2023-05-17T06:32:13.932Z,26.20
2023-05-17T06:33:13.930Z,26.22
2023-05-17T06:34:14.013Z,26.23
2023-05-17T06:35:14.793Z,26.20
2023-05-17T06:36:13.879Z,26.19
2023-05-17T06:37:13.962Z,26.20
2023-05-17T06:38:13.839Z,26.22
2023-05-17T06:39:13.883Z,26.22
2023-05-17T06:41:13.853Z,26.22
2023-05-17T06:42:13.807Z,26.20
2023-05-17T06:43:13.891Z,26.19
2023-05-17T06:44:13.808Z,26.22
2023-05-17T06:45:13.839Z,26.20
2023-05-17T06:46:13.821Z,26.22
2023-05-17T06:47:13.849Z,26.16
2023-05-17T06:48:14.023Z,26.18
2023-05-17T06:49:13.977Z,26.19
2023-05-17T06:50:14.895Z,26.20
2023-05-17T06:51:14.056Z,26.19
2023-05-17T06:52:13.926Z,26.18
2023-05-17T06:53:14.992Z,26.19
2023-05-17T06:54:14.012Z,26.20
2023-05-17T06:55:14.010Z,26.19
2023-05-17T06:56:14.237Z,26.18
2023-05-17T06:57:14.063Z,26.18
2023-05-17T06:58:14.218Z,26.18
2023-05-17T06:59:15.174Z,26.18
2023-05-17T07:00:14.167Z,26.16
2023-05-17T07:01:14.162Z,26.18
2023-05-17T07:02:14.168Z,26.16
2023-05-17T07:03:14.367Z,26.18
2023-05-17T07:04:14.552Z,26.12
2023-05-17T07:05:14.305Z,26.16
2023-05-17T07:06:14.320Z,26.13
2023-05-17T07:07:14.341Z,26.18
2023-05-17T07:08:14.350Z,26.19
2023-05-17T07:09:14.762Z,26.19
2023-05-17T07:10:14.427Z,26.20
2023-05-17T07:11:14.648Z,26.18
2023-05-17T07:12:14.466Z,26.18
2023-05-17T07:13:14.512Z,26.20
2023-05-17T07:14:14.855Z,26.20
2023-05-17T07:15:14.563Z,26.20
2023-05-17T07:16:14.767Z,26.22
2023-05-17T07:17:14.610Z,26.19
2023-05-17T07:18:14.772Z,26.20
2023-05-17T07:19:14.739Z,26.20
2023-05-17T07:20:14.779Z,26.20
2023-05-17T07:21:14.799Z,26.20
2023-05-17T07:22:14.774Z,26.16
2023-05-17T07:23:14.816Z,26.16
2023-05-17T07:24:14.914Z,26.18
2023-05-17T07:25:15.105Z,26.16
2023-05-17T07:26:14.882Z,26.18
2023-05-17T07:27:14.894Z,26.19
2023-05-17T07:28:14.992Z,26.16
2023-05-17T07:29:14.996Z,26.20
2023-05-17T07:30:15.070Z,26.16
2023-05-17T07:31:15.046Z,26.18
2023-05-17T07:32:15.096Z,26.16
2023-05-17T07:33:15.200Z,26.18
2023-05-17T07:34:15.289Z,26.16
2023-05-17T07:35:15.202Z,26.13
2023-05-17T07:36:15.254Z,26.15
2023-05-17T07:37:15.282Z,26.16
2023-05-17T07:38:15.284Z,26.18
2023-05-17T07:39:15.396Z,26.15
2023-05-17T07:40:15.362Z,26.18
2023-05-17T07:41:15.662Z,26.16
2023-05-17T07:42:15.445Z,26.19
2023-05-17T07:43:15.499Z,26.16
2023-05-17T07:44:15.541Z,26.15
2023-05-17T07:45:15.574Z,26.15
2023-05-17T07:46:15.589Z,26.18
2023-05-17T07:47:15.700Z,26.19
2023-05-17T07:48:16.474Z,26.19
2023-05-17T07:49:15.737Z,26.19
2023-05-17T07:50:15.697Z,26.23
2023-05-17T07:51:15.728Z,26.22
2023-05-17T07:52:15.769Z,26.28
2023-05-17T07:53:15.764Z,26.30
2023-05-17T07:54:15.820Z,26.30
2023-05-17T07:55:17.063Z,26.36
2023-05-17T07:56:15.857Z,26.33
2023-05-17T07:57:16.822Z,26.38
2023-05-17T07:58:16.094Z,26.40
2023-05-17T07:59:15.932Z,26.42
2023-05-17T08:00:15.949Z,26.43
2023-05-17T08:01:15.955Z,26.43
2023-05-17T08:02:15.965Z,26.43
2023-05-17T08:03:17.459Z,26.46
2023-05-17T08:04:16.040Z,26.44
2023-05-17T08:05:15.994Z,26.44
2023-05-17T08:06:16.178Z,26.44
2023-05-17T08:07:16.014Z,26.44
2023-05-17T08:08:16.027Z,26.46
2023-05-17T08:09:16.049Z,26.42
2023-05-17T08:10:16.084Z,26.43
2023-05-17T08:11:16.083Z,26.42
2023-05-17T08:12:16.074Z,26.42
2023-05-17T08:13:16.105Z,26.40
2023-05-17T08:14:16.173Z,26.42
2023-05-17T08:15:16.166Z,26.38
2023-05-17T08:16:16.164Z,26.39
2023-05-17T08:17:16.186Z,26.36
2023-05-17T08:18:16.263Z,26.39
2023-05-17T08:19:16.621Z,26.35
2023-05-17T08:20:16.266Z,26.35
2023-05-17T08:21:16.278Z,26.35
2023-05-17T08:22:16.392Z,26.32
2023-05-17T08:23:16.361Z,26.35
2023-05-17T08:24:16.406Z,26.33
2023-05-17T08:25:16.381Z,26.32
2023-05-17T08:26:16.465Z,26.33
2023-05-17T08:27:16.446Z,26.32
2023-05-17T08:28:16.549Z,26.32
2023-05-17T08:29:16.494Z,26.32
2023-05-17T08:30:27.866Z,26.30
2023-05-17T08:31:16.577Z,26.33
2023-05-17T08:32:16.571Z,26.33
2023-05-17T08:33:16.587Z,26.38
2023-05-17T08:34:16.637Z,26.38
2023-05-17T08:35:16.549Z,26.39
2023-05-17T08:36:16.526Z,26.43
2023-05-17T08:37:16.704Z,26.44
2023-05-17T08:38:18.052Z,26.47
2023-05-17T08:39:16.597Z,26.50
2023-05-17T08:40:16.502Z,26.50
2023-05-17T08:41:16.495Z,26.53
2023-05-17T08:42:16.480Z,26.54
2023-05-17T08:43:16.926Z,26.54
2023-05-17T08:44:16.496Z,26.59
2023-05-17T08:45:16.443Z,26.59
2023-05-17T08:46:16.462Z,26.61
2023-05-17T08:47:16.439Z,26.67
2023-05-17T08:48:16.530Z,26.69
2023-05-17T08:49:17.401Z,26.71
2023-05-17T08:50:16.493Z,26.74
2023-05-17T08:51:16.382Z,26.76
2023-05-17T08:52:16.389Z,26.77
2023-05-17T08:53:16.450Z,26.77
2023-05-17T08:54:16.369Z,26.81
2023-05-17T08:55:16.617Z,26.83
2023-05-17T08:56:16.382Z,26.80
2023-05-17T08:57:16.335Z,26.84
2023-05-17T08:58:16.362Z,26.86
2023-05-17T08:59:16.387Z,26.86
2023-05-17T09:00:16.414Z,26.86
2023-05-17T09:01:16.346Z,26.89
2023-05-17T09:02:16.385Z,26.90
2023-05-17T09:03:16.379Z,26.94
2023-05-17T09:04:16.413Z,26.94
2023-05-17T09:05:16.377Z,26.98
2023-05-17T09:06:16.340Z,27.00
2023-05-17T09:07:17.400Z,27.00
2023-05-17T09:08:16.272Z,27.04
2023-05-17T09:09:16.272Z,27.04
2023-05-17T09:10:16.262Z,27.05
2023-05-17T09:11:16.312Z,27.05
2023-05-17T09:12:16.275Z,27.07
2023-05-17T09:13:16.252Z,27.11
2023-05-17T09:14:16.264Z,27.13
2023-05-17T09:15:16.335Z,27.14
2023-05-17T09:16:16.381Z,27.15
2023-05-17T09:17:16.422Z,27.15
2023-05-17T09:18:19.265Z,27.20
2023-05-17T09:19:16.627Z,27.18
2023-05-17T09:20:16.599Z,27.24
2023-05-17T09:21:16.413Z,27.17
2023-05-17T09:22:16.447Z,27.20
2023-05-17T09:23:16.436Z,27.17
2023-05-17T09:24:16.370Z,27.23
2023-05-17T09:25:16.363Z,27.21
2023-05-17T09:26:16.396Z,27.23
2023-05-17T09:27:16.355Z,27.24
2023-05-17T09:28:16.421Z,27.21
2023-05-17T09:29:16.449Z,27.23
2023-05-17T09:30:16.441Z,27.23
2023-05-17T09:31:16.379Z,27.25
2023-05-17T09:32:16.368Z,27.25
2023-05-17T09:33:18.587Z,27.25
2023-05-17T09:34:16.327Z,27.27
2023-05-17T09:35:16.376Z,27.25
2023-05-17T09:36:16.349Z,27.24
2023-05-17T09:37:16.328Z,27.25
2023-05-17T09:38:16.280Z,27.27
2023-05-17T09:39:16.330Z,27.25
2023-05-17T09:40:16.292Z,27.25
2023-05-17T09:41:16.290Z,27.27
2023-05-17T09:42:16.292Z,27.24
2023-05-17T09:43:16.252Z,27.24
2023-05-17T09:44:16.256Z,27.24
2023-05-17T09:45:16.233Z,27.24
2023-05-17T09:46:16.257Z,27.24
2023-05-17T09:47:16.231Z,27.27
2023-05-17T09:48:16.364Z,27.27
2023-05-17T09:49:16.311Z,27.27
2023-05-17T09:50:16.220Z,27.30
2023-05-17T09:51:16.227Z,27.30
2023-05-17T09:52:16.205Z,27.31
2023-05-17T09:53:16.211Z,27.31
2023-05-17T09:54:16.197Z,27.30
2023-05-17T09:55:16.175Z,27.30
2023-05-17T09:56:16.206Z,27.30
2023-05-17T09:57:16.177Z,27.31
2023-05-17T09:58:16.155Z,27.33
2023-05-17T09:59:16.386Z,27.21
2023-05-17T10:00:16.169Z,27.01
2023-05-17T10:01:16.152Z,26.83
2023-05-17T10:02:16.144Z,26.66
2023-05-17T10:03:16.245Z,26.47
2023-05-17T10:04:16.151Z,26.39
2023-05-17T10:05:16.222Z,26.33
2023-05-17T10:06:27.775Z,26.30
2023-05-17T10:07:17.130Z,26.32
2023-05-17T10:08:16.126Z,26.33
2023-05-17T10:09:16.126Z,26.35
2023-05-17T10:10:16.077Z,26.38
2023-05-17T10:11:16.066Z,26.40
2023-05-17T10:12:16.112Z,26.46
2023-05-17T10:13:16.073Z,26.49
2023-05-17T10:14:16.062Z,26.54
2023-05-17T10:15:16.156Z,26.57
2023-05-17T10:16:16.050Z,26.60
2023-05-17T10:17:16.058Z,26.67
2023-05-17T10:18:16.206Z,26.69
2023-05-17T10:19:16.172Z,26.71
2023-05-17T10:20:16.168Z,26.76
2023-05-17T10:21:16.240Z,26.83
2023-05-17T10:22:23.368Z,26.81
2023-05-17T10:23:17.057Z,26.84
2023-05-17T10:24:15.992Z,26.86
2023-05-17T10:25:16.009Z,26.87
2023-05-17T10:26:15.985Z,26.84
2023-05-17T10:27:15.968Z,26.84
2023-05-17T10:28:15.994Z,26.86
2023-05-17T10:29:15.945Z,26.86
2023-05-17T10:30:15.941Z,26.81
2023-05-17T10:31:15.999Z,26.79
2023-05-17T10:32:15.943Z,26.77
2023-05-17T10:33:16.274Z,26.77
2023-05-17T10:34:16.052Z,26.76
2023-05-17T10:35:15.932Z,26.74
2023-05-17T10:36:15.910Z,26.74
2023-05-17T10:37:15.940Z,26.73
2023-05-17T10:38:15.941Z,26.71
2023-05-17T10:39:15.902Z,26.71
2023-05-17T10:40:15.888Z,26.71
2023-05-17T10:41:15.900Z,26.70
2023-05-17T10:42:15.916Z,26.70
2023-05-17T10:43:15.920Z,26.70
2023-05-17T10:44:15.930Z,26.70
2023-05-17T10:45:15.865Z,26.70
2023-05-17T10:46:15.851Z,26.67
2023-05-17T10:47:15.872Z,26.67
2023-05-17T10:48:15.929Z,26.69
2023-05-17T10:49:16.962Z,26.67
2023-05-17T10:50:15.944Z,26.69
2023-05-17T10:51:15.893Z,26.69
2023-05-17T10:52:15.884Z,26.69
2023-05-17T10:53:15.925Z,26.67
2023-05-17T10:54:15.881Z,26.67
2023-05-17T10:55:15.918Z,26.67
2023-05-17T10:56:15.936Z,26.66
2023-05-17T10:57:15.927Z,26.69
2023-05-17T10:58:16.059Z,26.66
2023-05-17T10:59:16.125Z,26.67
2023-05-17T11:00:15.956Z,26.66
2023-05-17T11:01:15.938Z,26.66
2023-05-17T11:02:16.004Z,26.66
2023-05-17T11:03:16.044Z,26.64
2023-05-17T11:04:16.038Z,26.66
2023-05-17T11:05:16.133Z,26.67
2023-05-17T11:06:23.973Z,26.69
2023-05-17T11:07:17.012Z,26.66
2023-05-17T11:08:15.977Z,26.66
2023-05-17T11:09:15.977Z,26.63
2023-05-17T11:10:16.070Z,26.64
2023-05-17T11:11:16.015Z,26.64
2023-05-17T11:12:16.029Z,26.67
2023-05-17T11:13:15.935Z,26.64
2023-05-17T11:14:15.950Z,26.57
2023-05-17T11:15:15.946Z,26.47
2023-05-17T11:16:17.862Z,26.38
2023-05-17T11:17:15.906Z,26.29
2023-05-17T11:18:29.452Z,26.16
2023-05-17T11:19:16.930Z,26.12
2023-05-17T11:20:17.179Z,26.06
2023-05-17T11:21:15.875Z,26.02
2023-05-17T11:22:15.859Z,25.99
2023-05-17T11:23:15.870Z,25.99
2023-05-17T11:24:15.892Z,26.00
2023-05-17T11:25:15.850Z,26.00
2023-05-17T11:26:16.361Z,26.02
2023-05-17T11:27:15.872Z,26.02
2023-05-17T11:28:15.854Z,26.05
2023-05-17T11:29:15.900Z,26.05
2023-05-17T11:30:15.947Z,26.08
2023-05-17T11:31:15.979Z,26.10
2023-05-17T11:32:16.036Z,26.09
2023-05-17T11:33:25.338Z,26.09
2023-05-17T11:34:17.077Z,26.10
2023-05-17T11:35:16.041Z,26.09
2023-05-17T11:36:16.055Z,26.15
2023-05-17T11:37:16.044Z,26.23
2023-05-17T11:38:17.930Z,26.28
2023-05-17T11:39:16.009Z,26.33
2023-05-17T11:40:16.148Z,26.40
2023-05-17T11:42:16.011Z,26.46
2023-05-17T11:43:15.998Z,26.51
2023-05-17T11:44:16.066Z,26.59
2023-05-17T11:45:15.990Z,26.60
2023-05-17T11:46:15.977Z,26.63
2023-05-17T11:47:15.971Z,26.63
2023-05-17T11:48:16.044Z,26.69
2023-05-17T11:49:27.037Z,26.73
2023-05-17T11:50:15.955Z,26.73
2023-05-17T11:51:16.214Z,26.76
2023-05-17T11:52:15.931Z,26.79
2023-05-17T11:53:15.965Z,26.80
2023-05-17T11:54:15.954Z,26.84
2023-05-17T11:55:15.946Z,26.86
2023-05-17T11:56:15.939Z,26.87
2023-05-17T11:57:15.959Z,26.91
2023-05-17T11:58:15.914Z,26.93
2023-05-17T11:59:15.905Z,26.93
2023-05-17T12:00:15.922Z,26.91
2023-05-17T12:01:15.873Z,26.95
2023-05-17T12:02:15.935Z,26.95
2023-05-17T12:03:15.988Z,26.93
2023-05-17T12:04:16.023Z,26.95
2023-05-17T12:05:16.135Z,26.89
2023-05-17T12:06:16.159Z,26.89
2023-05-17T12:07:16.101Z,26.89
2023-05-17T12:08:16.078Z,26.84
2023-05-17T12:09:16.122Z,26.84
2023-05-17T12:10:16.098Z,26.83
2023-05-17T12:11:16.132Z,26.87
2023-05-17T12:12:16.103Z,26.83
2023-05-17T12:13:16.119Z,26.84
2023-05-17T12:14:16.164Z,26.86
2023-05-17T12:15:16.167Z,26.86
2023-05-17T12:16:18.283Z,26.89
2023-05-17T12:17:16.185Z,26.86
2023-05-17T12:18:16.339Z,26.89
2023-05-17T12:19:16.208Z,26.84
2023-05-17T12:20:16.263Z,26.87
2023-05-17T12:21:16.222Z,26.84
2023-05-17T12:22:16.290Z,26.86
2023-05-17T12:23:16.308Z,26.80
2023-05-17T12:24:16.539Z,26.87
2023-05-17T12:25:16.314Z,26.83
2023-05-17T12:26:16.363Z,26.87
2023-05-17T12:27:16.350Z,26.87
2023-05-17T12:28:16.339Z,26.90
2023-05-17T12:29:16.359Z,26.91
2023-05-17T12:30:16.434Z,26.90
2023-05-17T12:31:16.408Z,26.93
2023-05-17T12:32:16.569Z,26.93
2023-05-17T12:33:16.569Z,26.93
2023-05-17T12:34:16.528Z,26.94
2023-05-17T12:35:16.467Z,26.94
2023-05-17T12:36:16.530Z,26.97
2023-05-17T12:37:16.513Z,26.97
2023-05-17T12:38:16.514Z,26.98
2023-05-17T12:39:16.551Z,27.00
2023-05-17T12:40:16.582Z,27.00
2023-05-17T12:41:16.650Z,27.01
2023-05-17T12:42:16.700Z,27.03
2023-05-17T12:43:16.716Z,27.00
2023-05-17T12:44:16.967Z,27.01
2023-05-17T12:45:16.759Z,26.98
2023-05-17T12:46:16.843Z,26.97
2023-05-17T12:47:16.809Z,26.94
2023-05-17T12:48:16.915Z,26.93
2023-05-17T12:49:16.908Z,26.91
2023-05-17T12:50:16.851Z,26.90
2023-05-17T12:51:16.831Z,26.86
2023-05-17T12:52:16.872Z,26.86
2023-05-17T12:53:16.911Z,26.86
2023-05-17T12:54:16.918Z,26.84
2023-05-17T12:55:16.909Z,26.83
2023-05-17T12:56:16.935Z,26.79
2023-05-17T12:57:16.935Z,26.77
2023-05-17T12:58:16.981Z,26.74
2023-05-17T12:59:16.976Z,26.74
2023-05-17T13:00:16.970Z,26.74
2023-05-17T13:01:17.031Z,26.73
2023-05-17T13:02:16.998Z,26.69
2023-05-17T13:03:17.068Z,26.69
2023-05-17T13:04:18.996Z,26.66
2023-05-17T13:05:16.999Z,26.64
2023-05-17T13:06:17.001Z,26.66
2023-05-17T13:07:17.030Z,26.66
2023-05-17T13:08:16.995Z,26.63
2023-05-17T13:09:17.040Z,26.59
2023-05-17T13:10:17.064Z,26.54
2023-05-17T13:11:17.114Z,26.46
2023-05-17T13:12:17.125Z,26.40
2023-05-17T13:13:17.186Z,26.35
2023-05-17T13:14:17.199Z,26.28
2023-05-17T13:15:17.300Z,26.25
2023-05-17T13:16:17.363Z,26.19
2023-05-17T13:17:17.375Z,26.13
2023-05-17T13:18:17.537Z,26.08
2023-05-17T13:19:17.521Z,26.00
2023-05-17T13:20:17.591Z,25.93
2023-05-17T13:21:17.440Z,25.88
2023-05-17T13:22:17.549Z,25.78
2023-05-17T13:23:17.539Z,25.75
2023-05-17T13:24:17.525Z,25.69
2023-05-17T13:25:17.523Z,25.64
2023-05-17T13:26:17.626Z,25.60
2023-05-17T13:27:18.477Z,25.54
2023-05-17T13:28:17.655Z,25.48
2023-05-17T13:29:20.719Z,25.41
2023-05-17T13:30:18.657Z,25.38
2023-05-17T13:31:17.647Z,25.34
2023-05-17T13:32:17.623Z,25.30
2023-05-17T13:33:17.835Z,25.27
2023-05-17T13:34:17.614Z,25.24
2023-05-17T13:35:17.629Z,25.21
2023-05-17T13:36:17.622Z,25.20
2023-05-17T13:37:17.612Z,25.15
2023-05-17T13:38:17.578Z,25.15
2023-05-17T13:39:17.658Z,25.11
2023-05-17T13:40:17.631Z,25.13
2023-05-17T13:41:17.573Z,25.10
2023-05-17T13:42:17.641Z,25.13
2023-05-17T13:43:17.607Z,25.15
2023-05-17T13:44:17.645Z,25.20
2023-05-17T13:45:17.723Z,25.27
2023-05-17T13:46:17.696Z,25.31
2023-05-17T13:47:17.696Z,25.37
2023-05-17T13:48:17.731Z,25.42
2023-05-17T13:49:17.760Z,25.49
2023-05-17T13:50:17.744Z,25.57
2023-05-17T13:51:17.799Z,25.62
2023-05-17T13:52:17.868Z,25.68
2023-05-17T13:53:17.949Z,25.75
2023-05-17T13:54:18.493Z,25.81
2023-05-17T13:55:17.985Z,25.86
2023-05-17T13:56:18.013Z,25.88
2023-05-17T13:57:18.127Z,25.92
2023-05-17T13:58:18.118Z,25.95
2023-05-17T13:59:18.136Z,25.98
2023-05-17T14:00:18.166Z,25.99
2023-05-17T14:01:18.234Z,26.02
2023-05-17T14:02:18.277Z,25.99
2023-05-17T14:03:18.391Z,26.05
2023-05-17T14:04:18.348Z,26.05
2023-05-17T14:05:18.402Z,26.05
2023-05-17T14:06:18.461Z,26.05
2023-05-17T14:07:18.439Z,26.08
2023-05-17T14:08:18.500Z,26.10
2023-05-17T14:09:18.561Z,26.09
2023-05-17T14:10:18.550Z,26.12
2023-05-17T14:11:18.666Z,26.12
2023-05-17T14:12:18.640Z,26.10
2023-05-17T14:13:18.667Z,26.10
2023-05-17T14:14:18.767Z,26.12
2023-05-17T14:15:18.739Z,26.12
2023-05-17T14:16:18.774Z,26.12
2023-05-17T14:17:18.793Z,26.12
2023-05-17T14:18:18.979Z,26.15
2023-05-17T14:19:18.933Z,26.15
2023-05-17T14:20:18.944Z,26.15
2023-05-17T14:21:18.939Z,26.18
2023-05-17T14:22:18.965Z,26.18
2023-05-17T14:23:18.980Z,26.16
2023-05-17T14:24:19.058Z,26.18
2023-05-17T14:25:19.057Z,26.20
2023-05-17T14:26:19.093Z,26.20
2023-05-17T14:27:19.121Z,26.20
2023-05-17T14:28:19.082Z,26.20
2023-05-17T14:29:19.138Z,26.20
2023-05-17T14:30:19.159Z,26.22
2023-05-17T14:31:19.237Z,26.25
2023-05-17T14:32:19.205Z,26.26
2023-05-17T14:33:19.411Z,26.22
2023-05-17T14:34:19.364Z,26.23
2023-05-17T14:35:19.320Z,26.26
2023-05-17T14:36:19.357Z,26.26
2023-05-17T14:37:19.367Z,26.23
2023-05-17T14:38:19.389Z,26.25
2023-05-17T14:39:19.421Z,26.26
2023-05-17T14:40:19.418Z,26.25
2023-05-17T14:41:19.454Z,26.26
2023-05-17T14:42:19.492Z,26.28
2023-05-17T14:43:19.486Z,26.26
2023-05-17T14:44:19.494Z,26.29
2023-05-17T14:45:19.535Z,26.29
2023-05-17T14:46:19.584Z,26.29
2023-05-17T14:47:19.614Z,26.28
2023-05-17T14:48:19.711Z,26.30
2023-05-17T14:49:19.735Z,26.29
2023-05-17T14:50:19.648Z,26.29
2023-05-17T14:51:19.708Z,26.32
2023-05-17T14:52:19.694Z,26.32
2023-05-17T14:53:19.712Z,26.33
2023-05-17T14:54:19.708Z,26.35
2023-05-17T14:55:19.782Z,26.33
2023-05-17T14:56:19.771Z,26.35
2023-05-17T14:57:19.790Z,26.33
2023-05-17T14:58:19.786Z,26.32
2023-05-17T14:59:19.866Z,26.35
2023-05-17T15:00:19.878Z,26.35
2023-05-17T15:01:19.893Z,26.33
2023-05-17T15:02:19.902Z,26.33
2023-05-17T15:03:22.403Z,26.33
2023-05-17T15:04:20.298Z,26.30
2023-05-17T15:05:20.277Z,26.30
2023-05-17T15:06:20.224Z,26.32
2023-05-17T15:07:20.260Z,26.30
2023-05-17T15:08:20.271Z,26.32
2023-05-17T15:09:20.294Z,26.30
2023-05-17T15:10:20.288Z,26.29
2023-05-17T15:11:20.337Z,26.28
2023-05-17T15:12:20.392Z,26.29
2023-05-17T15:13:20.362Z,26.28
2023-05-17T15:14:20.396Z,26.29
2023-05-17T15:15:20.485Z,26.30
2023-05-17T15:16:20.557Z,26.28
2023-05-17T15:17:20.493Z,26.28
2023-05-17T15:18:20.561Z,26.29
2023-05-17T15:19:20.581Z,26.29
2023-05-17T15:20:20.701Z,26.29
2023-05-17T15:21:20.593Z,26.28
2023-05-17T15:22:20.661Z,26.29
2023-05-17T15:23:20.687Z,26.29
2023-05-17T15:24:20.685Z,26.28
2023-05-17T15:25:20.752Z,26.29
2023-05-17T15:26:20.869Z,26.28
2023-05-17T15:27:20.787Z,26.28
2023-05-17T15:28:20.802Z,26.26
2023-05-17T15:29:20.865Z,26.29
2023-05-17T15:30:20.873Z,26.26
2023-05-17T15:31:20.912Z,26.29
2023-05-17T15:32:20.979Z,26.29
2023-05-17T15:33:21.049Z,26.28
2023-05-17T15:34:21.020Z,26.28
2023-05-17T15:35:20.991Z,26.26
2023-05-17T15:36:21.025Z,26.30
2023-05-17T15:37:21.048Z,26.33
2023-05-17T15:38:21.151Z,26.29
2023-05-17T15:39:21.115Z,26.30
2023-05-17T15:40:21.155Z,26.28
2023-05-17T15:41:21.165Z,26.29
2023-05-17T15:42:21.189Z,26.28
2023-05-17T15:43:21.250Z,26.30
2023-05-17T15:44:21.250Z,26.28
2023-05-17T15:45:21.322Z,26.29
2023-05-17T15:46:21.406Z,26.29
2023-05-17T15:47:23.921Z,26.29
2023-05-17T15:48:22.418Z,26.28
2023-05-17T15:49:21.355Z,26.26
2023-05-17T15:50:21.328Z,26.29
2023-05-17T15:51:21.319Z,26.29
2023-05-17T15:52:21.314Z,26.28
2023-05-17T15:53:21.327Z,26.28
2023-05-17T15:54:21.291Z,26.28
2023-05-17T15:55:21.302Z,26.30
2023-05-17T15:56:21.284Z,26.30
2023-05-17T15:57:21.338Z,26.26
2023-05-17T15:58:21.281Z,26.29
2023-05-17T15:59:21.274Z,26.29
2023-05-17T16:00:21.286Z,26.29
2023-05-17T16:01:21.241Z,26.26
2023-05-17T16:02:21.246Z,26.30
2023-05-17T16:03:21.303Z,26.29
2023-05-17T16:04:21.297Z,26.30
2023-05-17T16:05:21.281Z,26.30
2023-05-17T16:06:21.424Z,26.28
2023-05-17T16:07:21.375Z,26.28
2023-05-17T16:08:21.390Z,26.30
2023-05-17T16:09:21.408Z,26.29
2023-05-17T16:10:21.472Z,26.26
2023-05-17T16:11:21.455Z,26.28
2023-05-17T16:12:21.498Z,26.28
2023-05-17T16:13:21.533Z,26.28
2023-05-17T16:14:21.578Z,26.29
2023-05-17T16:15:21.568Z,26.26
2023-05-17T16:16:21.627Z,26.29
2023-05-17T16:17:21.709Z,26.26
2023-05-17T16:18:21.799Z,26.29
2023-05-17T16:19:21.733Z,26.28
2023-05-17T16:20:21.723Z,26.28
2023-05-17T16:21:21.774Z,26.28
2023-05-17T16:22:21.798Z,26.26
2023-05-17T16:23:21.837Z,26.25
2023-05-17T16:24:21.876Z,26.26
2023-05-17T16:25:21.907Z,26.28
2023-05-17T16:26:22.028Z,26.26
2023-05-17T16:27:22.025Z,26.26
2023-05-17T16:28:21.965Z,26.28
2023-05-17T16:29:22.028Z,26.29
2023-05-17T16:30:22.082Z,26.26
2023-05-17T16:31:22.080Z,26.28
2023-05-17T16:32:22.198Z,26.28
2023-05-17T16:33:22.239Z,26.26
2023-05-17T16:34:22.202Z,26.29
2023-05-17T16:35:22.348Z,26.28
2023-05-17T16:36:22.238Z,26.23
2023-05-17T16:37:22.303Z,26.28
2023-05-17T16:38:22.274Z,26.26
2023-05-17T16:39:22.286Z,26.29
2023-05-17T16:40:22.341Z,26.28
2023-05-17T16:41:22.344Z,26.26
2023-05-17T16:42:22.436Z,26.28
2023-05-17T16:43:22.428Z,26.29
2023-05-17T16:44:22.441Z,26.28
2023-05-17T16:45:22.524Z,26.28
2023-05-17T16:46:22.583Z,26.29
2023-05-17T16:47:22.583Z,26.28
2023-05-17T16:48:22.586Z,26.26
2023-05-17T16:49:22.622Z,26.26
2023-05-17T16:50:22.650Z,26.25
2023-05-17T16:51:22.700Z,26.26
2023-05-17T16:52:22.703Z,26.29
2023-05-17T16:53:22.728Z,26.26
2023-05-17T16:54:22.769Z,26.28
2023-05-17T16:55:22.801Z,26.28
2023-05-17T16:56:22.849Z,26.26
2023-05-17T16:57:22.840Z,26.26
2023-05-17T16:58:22.882Z,26.28
2023-05-17T16:59:22.912Z,26.28
2023-05-17T17:00:22.901Z,26.26
